createdAt,value
2023-03-30T00:01:15.003Z,8.82
2023-03-30T00:03:45.155Z,8.75
2023-03-30T00:06:14.842Z,9.15
2023-03-30T00:08:43.677Z,9.30
2023-03-30T00:11:17.306Z,8.82
2023-03-30T00:13:45.097Z,9.00
2023-03-30T00:16:14.328Z,8.23
2023-03-30T00:18:41.712Z,9.30
2023-03-30T00:21:12.446Z,8.70
2023-03-30T00:23:39.846Z,9.38
2023-03-30T00:26:07.871Z,8.65
2023-03-30T00:28:35.320Z,9.18
2023-03-30T00:31:03.208Z,8.68
2023-03-30T00:33:44.887Z,8.93
2023-03-30T00:36:14.002Z,9.27
2023-03-30T00:38:41.458Z,9.32
2023-03-30T00:41:09.501Z,9.50
2023-03-30T00:44:05.392Z,9.45
2023-03-30T00:46:32.990Z,9.88
2023-03-30T00:49:06.393Z,10.65
2023-03-30T00:51:38.167Z,10.95
2023-03-30T00:54:15.528Z,10.88
2023-03-30T00:56:43.016Z,10.57
2023-03-30T00:59:10.867Z,10.10
2023-03-30T01:01:42.024Z,11.38
2023-03-30T01:04:12.380Z,10.50
2023-03-30T01:06:40.872Z,10.18
2023-03-30T01:09:10.984Z,10.75
2023-03-30T01:11:38.182Z,9.68
2023-03-30T01:14:08.239Z,10.52
2023-03-30T01:16:35.588Z,10.77
2023-03-30T01:19:36.595Z,9.88
2023-03-30T01:22:15.102Z,9.45
2023-03-30T01:25:15.412Z,9.07
2023-03-30T01:28:11.360Z,9.75
2023-03-30T01:31:16.109Z,9.82
2023-03-30T01:34:22.397Z,9.55
2023-03-30T01:36:53.992Z,10.30
2023-03-30T01:39:33.338Z,10.63
2023-03-30T01:42:22.576Z,10.38
2023-03-30T01:45:02.055Z,10.32
2023-03-30T01:47:39.739Z,9.95
2023-03-30T01:50:12.561Z,10.00
2023-03-30T01:52:50.503Z,10.90
2023-03-30T01:55:24.523Z,9.88
2023-03-30T01:58:17.099Z,10.52
2023-03-30T02:00:50.380Z,10.55
2023-03-30T02:03:31.957Z,10.35
2023-03-30T02:06:16.673Z,10.43
2023-03-30T02:08:44.891Z,11.45
2023-03-30T02:11:12.832Z,10.98
2023-03-30T02:13:42.797Z,10.20
2023-03-30T02:16:16.535Z,10.70
2023-03-30T02:18:46.667Z,10.70
2023-03-30T02:21:13.964Z,10.35
2023-03-30T02:23:46.595Z,10.43
2023-03-30T02:26:14.151Z,11.20
2023-03-30T02:28:41.713Z,11.02
2023-03-30T02:31:16.583Z,10.32
2023-03-30T02:34:08.696Z,10.77
2023-03-30T02:37:08.132Z,11.35
2023-03-30T02:39:39.764Z,9.85
2023-03-30T02:42:40.992Z,10.13
2023-03-30T02:45:29.900Z,10.13
2023-03-30T02:48:23.748Z,10.30
2023-03-30T02:51:17.593Z,10.43
2023-03-30T02:54:20.034Z,10.48
2023-03-30T02:57:33.208Z,10.00
2023-03-30T03:00:36.316Z,10.27
2023-03-30T03:03:11.638Z,10.23
2023-03-30T03:08:15.674Z,10.00
2023-03-30T03:10:44.352Z,10.07
2023-03-30T03:13:15.341Z,9.25
2023-03-30T03:15:45.731Z,9.73
2023-03-30T03:18:13.757Z,9.52
2023-03-30T03:20:42.300Z,8.80
2023-03-30T03:23:10.692Z,8.68
2023-03-30T03:25:48.746Z,8.70
2023-03-30T03:28:18.051Z,8.32
2023-03-30T03:30:49.873Z,8.35
2023-03-30T03:33:22.555Z,8.77
2023-03-30T03:36:00.543Z,8.05
2023-03-30T03:38:30.207Z,8.70
2023-03-30T03:40:59.959Z,9.30
2023-03-30T03:43:28.488Z,8.80
2023-03-30T03:45:55.752Z,9.00
2023-03-30T03:48:24.278Z,9.77
2023-03-30T03:50:54.319Z,9.27
2023-03-30T03:53:22.551Z,9.48
2023-03-30T03:55:52.709Z,9.52
2023-03-30T03:58:19.960Z,9.88
2023-03-30T04:00:47.846Z,9.15
2023-03-30T04:03:15.729Z,9.30
2023-03-30T04:05:43.279Z,9.45
2023-03-30T04:08:11.052Z,9.40
2023-03-30T04:10:41.803Z,9.63
2023-03-30T04:13:33.573Z,9.10
2023-03-30T04:16:28.962Z,9.35
2023-03-30T04:19:31.682Z,10.38
2023-03-30T04:22:33.739Z,10.38
2023-03-30T04:25:29.081Z,10.43
2023-03-30T04:28:07.149Z,10.18
2023-03-30T04:30:46.561Z,10.18
2023-03-30T04:33:35.297Z,10.07
2023-03-30T04:36:26.085Z,10.48
2023-03-30T04:39:08.395Z,10.85
2023-03-30T04:41:55.887Z,10.38
2023-03-30T04:44:39.231Z,10.52
2023-03-30T04:47:25.623Z,9.98
2023-03-30T04:50:07.282Z,9.90
2023-03-30T04:53:15.299Z,9.75
2023-03-30T04:56:00.938Z,9.82
2023-03-30T04:58:51.307Z,9.60
2023-03-30T05:01:26.822Z,9.88
2023-03-30T05:04:17.467Z,9.82
2023-03-30T05:07:04.171Z,9.70
2023-03-30T05:09:49.932Z,9.60
2023-03-30T05:12:42.563Z,9.60
2023-03-30T05:15:54.700Z,9.35
2023-03-30T05:18:34.178Z,8.98
2023-03-30T05:21:15.734Z,9.40
2023-03-30T05:24:15.323Z,9.02
2023-03-30T05:27:08.811Z,9.32
2023-03-30T05:29:59.248Z,9.52
2023-03-30T05:32:45.323Z,9.00
2023-03-30T05:35:29.465Z,9.20
2023-03-30T05:38:26.392Z,9.10
2023-03-30T05:41:29.083Z,9.02
2023-03-30T05:44:07.837Z,9.02
2023-03-30T05:47:04.432Z,9.20
2023-03-30T05:49:42.890Z,9.43
2023-03-30T05:52:32.743Z,9.73
2023-03-30T05:55:27.812Z,9.52
2023-03-30T05:58:14.671Z,9.15
2023-03-30T06:01:01.136Z,9.52
2023-03-30T06:03:39.075Z,9.10
2023-03-30T06:06:09.408Z,9.35
2023-03-30T06:08:37.518Z,9.52
2023-03-30T06:11:06.466Z,9.10
2023-03-30T06:13:44.320Z,9.40
2023-03-30T06:16:11.983Z,9.50
2023-03-30T06:18:39.706Z,9.30
2023-03-30T06:21:11.854Z,9.40
2023-03-30T06:24:02.158Z,8.85
2023-03-30T06:26:32.473Z,9.27
2023-03-30T06:28:59.618Z,9.10
2023-03-30T06:31:27.633Z,8.68
2023-03-30T06:34:14.965Z,8.38
2023-03-30T06:36:44.306Z,7.97
2023-03-30T06:39:13.913Z,8.27
2023-03-30T06:41:41.805Z,7.88
2023-03-30T06:44:23.820Z,7.30
2023-03-30T06:46:51.239Z,7.20
2023-03-30T06:49:18.640Z,7.13
2023-03-30T06:51:45.807Z,7.45
2023-03-30T06:54:15.074Z,7.22
2023-03-30T06:56:52.967Z,7.07
2023-03-30T06:59:20.386Z,6.93
2023-03-30T07:02:06.612Z,7.15
2023-03-30T07:04:53.457Z,7.13
2023-03-30T07:07:32.837Z,6.50
2023-03-30T07:10:00.416Z,7.22
2023-03-30T07:12:27.544Z,6.75
2023-03-30T07:14:55.233Z,6.53
2023-03-30T07:17:23.911Z,6.43
2023-03-30T07:19:54.171Z,6.88
2023-03-30T07:22:21.755Z,6.50
2023-03-30T07:24:48.814Z,6.40
2023-03-30T07:27:16.438Z,6.45
2023-03-30T07:29:44.067Z,6.47
2023-03-30T07:32:11.199Z,6.20
2023-03-30T07:34:38.609Z,6.90
2023-03-30T07:37:07.608Z,6.47
2023-03-30T07:39:35.254Z,7.10
2023-03-30T07:42:04.877Z,6.85
2023-03-30T07:44:32.333Z,6.32
2023-03-30T07:47:06.920Z,6.47
2023-03-30T07:49:36.383Z,6.68
2023-03-30T07:52:03.444Z,7.55
2023-03-30T07:54:40.053Z,7.70
2023-03-30T07:57:17.821Z,6.80
2023-03-30T07:59:45.115Z,6.20
2023-03-30T08:02:23.473Z,5.80
2023-03-30T08:04:53.685Z,5.97
2023-03-30T08:07:28.895Z,6.00
2023-03-30T08:10:04.238Z,5.72
2023-03-30T08:12:31.390Z,5.38
2023-03-30T08:14:59.002Z,5.00
2023-03-30T08:17:27.273Z,5.03
2023-03-30T08:19:58.475Z,4.85
2023-03-30T08:22:26.015Z,4.20
2023-03-30T08:24:53.257Z,4.40
2023-03-30T08:27:20.577Z,4.55
2023-03-30T08:29:49.081Z,4.22
2023-03-30T08:32:16.688Z,5.38
2023-03-30T08:34:44.903Z,4.75
2023-03-30T08:37:12.579Z,3.80
2023-03-30T08:39:39.767Z,3.92
2023-03-30T08:42:24.308Z,4.15
2023-03-30T08:44:57.862Z,3.97
2023-03-30T08:47:39.698Z,3.80
2023-03-30T08:50:39.511Z,3.90
2023-03-30T08:53:08.381Z,4.03
2023-03-30T08:55:43.151Z,3.90
2023-03-30T08:58:19.193Z,4.03
2023-03-30T09:01:25.564Z,4.10
2023-03-30T09:04:16.835Z,3.97
2023-03-30T09:06:52.255Z,3.55
2023-03-30T09:09:25.788Z,3.90
2023-03-30T09:12:06.015Z,3.67
2023-03-30T09:14:38.777Z,3.67
2023-03-30T09:17:13.215Z,4.28
2023-03-30T09:20:09.445Z,3.72
2023-03-30T09:22:42.927Z,4.05
2023-03-30T09:25:19.369Z,3.05
2023-03-30T09:28:23.951Z,3.05
2023-03-30T09:31:24.717Z,2.88
2023-03-30T09:33:54.943Z,3.10
2023-03-30T09:36:29.159Z,3.20
2023-03-30T09:38:56.381Z,3.55
2023-03-30T09:41:42.770Z,3.60
2023-03-30T09:44:26.170Z,3.42
2023-03-30T09:46:58.795Z,4.18
2023-03-30T09:49:29.912Z,4.40
2023-03-30T09:52:08.520Z,4.80
2023-03-30T09:54:41.449Z,4.03
2023-03-30T09:57:30.416Z,3.30
2023-03-30T09:59:59.963Z,3.47
2023-03-30T10:02:31.467Z,3.03
2023-03-30T10:05:02.712Z,3.10
2023-03-30T10:07:33.582Z,3.30
2023-03-30T10:10:13.727Z,3.22
2023-03-30T10:12:40.943Z,3.10
2023-03-30T10:15:18.586Z,3.25
2023-03-30T10:17:48.224Z,3.22
2023-03-30T10:20:21.335Z,2.90
2023-03-30T10:22:55.508Z,3.17
2023-03-30T10:25:27.503Z,3.20
2023-03-30T10:27:57.768Z,3.00
2023-03-30T10:30:27.544Z,3.05
2023-03-30T10:32:57.746Z,3.40
2023-03-30T10:35:27.703Z,3.30
2023-03-30T10:37:57.038Z,3.25
2023-03-30T10:40:39.448Z,3.10
2023-03-30T10:43:15.579Z,3.20
2023-03-30T10:45:53.022Z,3.30
2023-03-30T10:48:41.667Z,3.17
2023-03-30T10:51:31.145Z,3.20
2023-03-30T10:54:29.771Z,2.90
2023-03-30T10:57:13.993Z,2.85
2023-03-30T10:59:59.824Z,2.53
2023-03-30T11:02:40.466Z,2.90
2023-03-30T11:05:15.752Z,2.80
2023-03-30T11:07:59.468Z,3.00
2023-03-30T11:10:32.240Z,3.00
2023-03-30T11:13:05.122Z,3.20
2023-03-30T11:15:40.799Z,2.45
2023-03-30T11:18:27.672Z,2.45
2023-03-30T11:21:01.683Z,2.58
2023-03-30T11:23:47.777Z,2.60
2023-03-30T11:26:23.112Z,1.90
2023-03-30T11:29:08.439Z,2.00
2023-03-30T11:34:53.329Z,2.10
2023-03-30T11:37:30.772Z,2.40
2023-03-30T11:40:18.607Z,2.28
2023-03-30T11:42:47.611Z,2.65
2023-03-30T11:45:17.910Z,2.80
2023-03-30T11:47:50.476Z,2.85
2023-03-30T11:50:52.845Z,2.70
2023-03-30T11:53:45.917Z,2.50
2023-03-30T11:56:40.372Z,2.40
2023-03-30T11:59:38.693Z,2.40
2023-03-30T12:02:11.932Z,2.22
2023-03-30T12:05:04.367Z,2.50
2023-03-30T12:07:43.058Z,1.80
2023-03-30T12:10:25.017Z,2.03
2023-03-30T12:12:55.565Z,1.95
2023-03-30T12:15:41.571Z,2.00
2023-03-30T12:18:33.036Z,1.80
2023-03-30T12:21:21.048Z,1.73
2023-03-30T12:24:01.337Z,1.83
2023-03-30T12:26:29.639Z,2.10
2023-03-30T12:29:44.477Z,2.30
2023-03-30T12:32:03.337Z,1.98
2023-03-30T12:34:37.306Z,2.50
2023-03-30T12:37:13.381Z,2.50
2023-03-30T12:39:49.566Z,2.10
2023-03-30T12:42:26.612Z,2.00
2023-03-30T12:45:16.734Z,1.90
2023-03-30T12:47:48.208Z,1.90
2023-03-30T12:50:27.717Z,1.80
2023-03-30T12:53:06.881Z,1.65
2023-03-30T12:55:48.005Z,1.60
2023-03-30T12:58:37.256Z,1.85
2023-03-30T13:01:43.116Z,1.70
2023-03-30T13:04:18.499Z,1.50
2023-03-30T13:06:56.857Z,1.20
2023-03-30T13:09:27.381Z,1.30
2023-03-30T13:11:55.987Z,1.20
2023-03-30T13:14:30.498Z,1.45
2023-03-30T13:17:04.339Z,1.45
2023-03-30T13:19:32.099Z,1.40
2023-03-30T13:22:12.281Z,1.40
2023-03-30T13:24:42.234Z,1.90
2023-03-30T13:27:15.355Z,1.83
2023-03-30T13:29:51.685Z,2.08
2023-03-30T13:32:54.496Z,2.20
2023-03-30T13:35:39.733Z,2.20
2023-03-30T13:38:30.823Z,2.17
2023-03-30T13:41:36.201Z,1.83
2023-03-30T13:44:33.965Z,1.70
2023-03-30T13:47:36.495Z,1.58
2023-03-30T13:50:28.983Z,1.67
2023-03-30T13:52:59.300Z,2.17
2023-03-30T13:55:33.259Z,1.88
2023-03-30T13:58:11.255Z,1.98
2023-03-30T14:00:50.993Z,1.85
2023-03-30T14:03:44.983Z,2.25
2023-03-30T14:06:14.945Z,1.75
2023-03-30T14:08:48.065Z,1.50
2023-03-30T14:11:24.165Z,1.58
2023-03-30T14:13:53.151Z,1.50
2023-03-30T14:16:23.943Z,1.73
2023-03-30T14:18:51.490Z,1.67
2023-03-30T14:21:24.303Z,1.50
2023-03-30T14:23:53.937Z,1.90
2023-03-30T14:26:26.984Z,2.28
2023-03-30T14:28:56.652Z,2.50
2023-03-30T14:31:27.524Z,2.88
2023-03-30T14:33:55.303Z,2.83
2023-03-30T14:36:23.093Z,3.20
2023-03-30T14:38:53.022Z,3.25
2023-03-30T14:41:29.709Z,2.70
2023-03-30T14:44:00.079Z,2.70
2023-03-30T14:46:56.321Z,2.50
2023-03-30T14:49:28.077Z,2.40
2023-03-30T14:52:30.907Z,2.95
2023-03-30T14:55:07.500Z,2.45
2023-03-30T14:57:39.680Z,2.58
2023-03-30T15:00:21.373Z,2.72
2023-03-30T15:03:00.472Z,2.65
2023-03-30T15:05:36.520Z,2.60
2023-03-30T15:08:05.115Z,2.47
2023-03-30T15:10:32.796Z,2.25
2023-03-30T15:13:01.203Z,2.00
2023-03-30T15:15:32.220Z,2.00
2023-03-30T15:18:01.982Z,1.80
2023-03-30T15:20:31.514Z,1.90
2023-03-30T15:23:00.628Z,2.10
2023-03-30T15:25:34.148Z,2.20
2023-03-30T15:28:08.088Z,2.30
2023-03-30T15:30:39.811Z,2.50
2023-03-30T15:33:19.005Z,2.60
2023-03-30T15:35:46.453Z,2.90
2023-03-30T15:38:16.001Z,3.20
2023-03-30T15:40:50.200Z,3.20
2023-03-30T15:43:29.586Z,3.22
2023-03-30T15:46:07.099Z,2.90
2023-03-30T15:48:52.639Z,3.05
2023-03-30T15:54:01.928Z,3.00
2023-03-30T15:56:52.362Z,2.67
2023-03-30T15:59:22.284Z,2.80
2023-03-30T16:01:57.367Z,2.80
2023-03-30T16:04:25.723Z,2.60
2023-03-30T16:06:53.046Z,2.40
2023-03-30T16:09:20.183Z,2.10
2023-03-30T16:11:47.513Z,2.10
2023-03-30T16:14:20.245Z,1.85
2023-03-30T16:16:48.602Z,2.10
2023-03-30T16:19:19.908Z,2.13
2023-03-30T16:21:47.044Z,1.80
2023-03-30T16:24:14.322Z,1.98
2023-03-30T16:26:41.467Z,2.20
2023-03-30T16:29:20.188Z,2.25
2023-03-30T16:31:48.395Z,2.53
2023-03-30T16:34:15.745Z,2.13
2023-03-30T16:36:42.895Z,2.03
2023-03-30T16:39:30.719Z,2.03
2023-03-30T16:41:58.255Z,2.05
2023-03-30T16:44:25.710Z,1.98
2023-03-30T16:46:53.173Z,1.83
2023-03-30T16:49:26.061Z,2.00
2023-03-30T16:51:57.580Z,1.83
2023-03-30T16:54:32.121Z,1.80
2023-03-30T16:57:00.578Z,2.00
2023-03-30T16:59:30.830Z,1.80
2023-03-30T17:02:00.013Z,2.20
2023-03-30T17:04:27.766Z,2.10
2023-03-30T17:06:55.279Z,1.85
2023-03-30T17:09:23.000Z,1.65
2023-03-30T17:11:51.477Z,1.90
2023-03-30T17:14:20.498Z,1.90
2023-03-30T17:16:47.930Z,1.98
2023-03-30T17:19:15.551Z,2.00
2023-03-30T17:21:43.967Z,2.15
2023-03-30T17:24:12.789Z,1.98
2023-03-30T17:26:41.397Z,2.10
2023-03-30T17:29:10.109Z,2.10
2023-03-30T17:31:38.502Z,2.13
2023-03-30T17:34:07.460Z,2.13
2023-03-30T17:36:35.077Z,1.95
2023-03-30T17:39:05.159Z,2.08
2023-03-30T17:41:33.802Z,2.00
2023-03-30T17:44:00.989Z,2.08
2023-03-30T17:46:30.662Z,2.30
2023-03-30T17:48:58.973Z,2.40
2023-03-30T17:51:26.400Z,2.63
2023-03-30T17:53:54.065Z,2.58
2023-03-30T17:56:21.162Z,3.20
2023-03-30T17:58:49.689Z,2.90
2023-03-30T18:01:17.153Z,2.60
2023-03-30T18:03:44.943Z,2.80
2023-03-30T18:06:13.318Z,2.97
2023-03-30T18:08:41.181Z,2.70
2023-03-30T18:11:08.450Z,2.40
2023-03-30T18:13:36.066Z,2.45
2023-03-30T18:16:03.343Z,2.30
2023-03-30T18:18:31.986Z,2.20
2023-03-30T18:21:05.124Z,2.40
2023-03-30T18:23:37.416Z,2.30
2023-03-30T18:26:12.260Z,2.30
2023-03-30T18:28:42.569Z,2.28
2023-03-30T18:31:09.805Z,2.10
2023-03-30T18:33:37.062Z,1.90
2023-03-30T18:36:08.666Z,1.98
2023-03-30T18:38:36.262Z,2.20
2023-03-30T18:41:04.590Z,2.40
2023-03-30T18:43:33.547Z,2.45
2023-03-30T18:46:02.513Z,2.60
2023-03-30T18:48:30.058Z,2.40
2023-03-30T18:50:58.876Z,2.28
2023-03-30T18:53:28.511Z,2.33
2023-03-30T18:55:58.752Z,2.42
2023-03-30T18:58:31.405Z,2.53
2023-03-30T19:00:58.670Z,2.00
2023-03-30T19:03:30.282Z,3.08
2023-03-30T19:05:59.250Z,1.92
2023-03-30T19:08:27.484Z,1.95
2023-03-30T19:10:57.309Z,1.83
2023-03-30T19:13:25.944Z,1.90
2023-03-30T19:15:53.902Z,1.90
2023-03-30T19:18:21.432Z,1.85
2023-03-30T19:20:50.128Z,2.05
2023-03-30T19:23:18.122Z,2.00
2023-03-30T19:25:46.004Z,2.00
2023-03-30T19:28:16.045Z,1.85
2023-03-30T19:30:43.603Z,1.83
2023-03-30T19:33:15.298Z,1.80
2023-03-30T19:35:46.615Z,1.90
2023-03-30T19:38:15.672Z,2.00
2023-03-30T19:40:44.314Z,2.13
2023-03-30T19:43:11.985Z,1.83
2023-03-30T19:45:39.365Z,1.90
2023-03-30T19:48:06.543Z,1.77
2023-03-30T19:50:33.873Z,2.17
2023-03-30T19:53:02.896Z,1.85
2023-03-30T19:55:30.122Z,1.50
2023-03-30T19:57:57.255Z,1.92
2023-03-30T20:00:24.693Z,1.75
2023-03-30T20:02:54.292Z,1.65
2023-03-30T20:05:24.235Z,2.10
2023-03-30T20:07:51.552Z,1.63
2023-03-30T20:10:22.007Z,1.65
2023-03-30T20:12:50.554Z,1.98
2023-03-30T20:15:18.249Z,1.60
2023-03-30T20:17:45.734Z,1.67
2023-03-30T20:20:17.053Z,2.20
2023-03-30T20:22:45.390Z,1.90
2023-03-30T20:25:14.464Z,2.03
2023-03-30T20:27:42.019Z,1.90
2023-03-30T20:30:10.156Z,2.30
2023-03-30T20:32:37.543Z,1.70
2023-03-30T20:35:06.188Z,2.38
2023-03-30T20:37:33.324Z,2.03
2023-03-30T20:40:04.892Z,1.75
2023-03-30T20:42:32.800Z,1.80
2023-03-30T20:45:01.306Z,1.63
2023-03-30T20:47:31.473Z,1.60
2023-03-30T20:49:59.568Z,1.58
2023-03-30T20:52:27.624Z,1.52
2023-03-30T20:54:58.682Z,1.60
2023-03-30T20:57:26.371Z,1.50
2023-03-30T20:59:54.347Z,1.50
2023-03-30T21:02:21.807Z,1.60
2023-03-30T21:04:49.667Z,1.60
2023-03-30T21:07:18.307Z,1.80
2023-03-30T21:09:45.571Z,1.73
2023-03-30T21:12:12.797Z,1.63
2023-03-30T21:14:40.487Z,1.40
2023-03-30T21:17:08.256Z,1.60
2023-03-30T21:19:36.778Z,1.40
2023-03-30T21:22:04.222Z,1.33
2023-03-30T21:24:32.555Z,1.40
2023-03-30T21:26:59.742Z,1.30
2023-03-30T21:29:26.959Z,1.50
2023-03-30T21:31:53.981Z,1.20
2023-03-30T21:34:22.216Z,1.30
2023-03-30T21:36:49.612Z,1.70
2023-03-30T21:39:17.162Z,1.30
2023-03-30T21:41:45.414Z,1.25
2023-03-30T21:44:12.740Z,1.30
2023-03-30T21:46:39.862Z,1.10
2023-03-30T21:49:07.077Z,1.00
2023-03-30T21:51:34.285Z,1.20
2023-03-30T21:54:01.972Z,1.30
2023-03-30T21:56:31.342Z,1.50
2023-03-30T21:58:59.236Z,2.30
2023-03-30T22:01:26.944Z,1.70
2023-03-30T22:03:55.546Z,2.20
2023-03-30T22:06:24.664Z,2.00
2023-03-30T22:08:52.217Z,1.77
2023-03-30T22:11:25.875Z,1.67
2023-03-30T22:13:55.506Z,1.40
2023-03-30T22:16:24.244Z,1.80
2023-03-30T22:18:51.624Z,1.70
2023-03-30T22:21:24.591Z,1.90
2023-03-30T22:23:54.737Z,1.65
2023-03-30T22:26:22.513Z,1.45
2023-03-30T22:28:49.591Z,1.20
2023-03-30T22:31:17.388Z,1.40
2023-03-30T22:33:44.885Z,1.20
2023-03-30T22:36:20.986Z,1.60
2023-03-30T22:38:49.620Z,1.60
2023-03-30T22:41:24.579Z,2.20
2023-03-30T22:43:52.538Z,2.23
2023-03-30T22:46:20.245Z,2.17
2023-03-30T22:48:49.880Z,1.85
2023-03-30T22:51:23.627Z,1.50
2023-03-30T22:53:51.009Z,1.40
2023-03-30T22:56:18.214Z,1.20
2023-03-30T22:58:46.670Z,1.30
2023-03-30T23:01:15.834Z,1.27
2023-03-30T23:03:43.154Z,1.13
2023-03-30T23:06:10.621Z,1.33
2023-03-30T23:08:39.432Z,1.10
2023-03-30T23:11:06.962Z,1.15
2023-03-30T23:13:38.080Z,1.30
2023-03-30T23:16:09.548Z,1.42
2023-03-30T23:18:37.025Z,1.30
2023-03-30T23:21:08.802Z,1.30
2023-03-30T23:23:36.665Z,1.20
2023-03-30T23:26:09.212Z,1.13
2023-03-30T23:28:39.967Z,0.90
2023-03-30T23:31:14.080Z,1.20
2023-03-30T23:33:42.134Z,1.67
2023-03-30T23:36:13.576Z,1.27
2023-03-30T23:38:41.778Z,1.30
2023-03-30T23:41:09.852Z,1.40
2023-03-30T23:43:37.061Z,1.60
2023-03-30T23:46:04.612Z,1.52
2023-03-30T23:48:32.701Z,1.60
2023-03-30T23:50:59.935Z,1.20
2023-03-30T23:53:27.097Z,1.50
2023-03-30T23:55:54.972Z,1.30
2023-03-30T23:58:22.757Z,1.27
